Time;durP1;ratioP1;P1;durP2;ratioP2;P2;SDS_P1;SDS_P2;PMS_P1;PMS_P2;Temp;Humidity;BMP_temperature;BMP_pressure;BME280_temperature;BME280_humidity;BME280_pressure;Samples;Min_cycle;Max_cycle;Signal;HPM_P1;HPM_P2
2020/12/05 00:01:23;;;;;;;14.73;7.53;;;;;;;5.95;84.20;97201.28;4410274;32;20500;-71
2020/12/05 00:03:49;;;;;;;13.00;7.20;;;;;;;5.89;84.32;97211.63;4413374;32;20088;-73
2020/12/05 00:06:21;;;;;;;15.15;7.28;;;;;;;5.90;84.41;97207.59;4411150;32;20101;-71
2020/12/05 00:08:49;;;;;;;12.37;7.37;;;;;;;5.89;84.50;97206.84;4412238;32;20022;-71
2020/12/05 00:11:14;;;;;;;12.93;6.97;;;;;;;5.77;84.85;97218.34;4412036;32;20045;-73
2020/12/05 00:13:40;;;;;;;12.35;7.25;;;;;;;5.84;85.15;97223.53;4410696;32;20078;-71
2020/12/05 00:16:06;;;;;;;12.70;7.15;;;;;;;5.92;85.13;97236.53;4411653;32;20085;-72
2020/12/05 00:18:31;;;;;;;14.02;7.28;;;;;;;5.92;84.47;97238.56;4411701;32;20069;-72
2020/12/05 00:20:57;;;;;;;12.63;7.40;;;;;;;5.96;84.57;97247.50;4413820;32;20077;-71
2020/12/05 00:23:23;;;;;;;14.45;7.12;;;;;;;5.92;84.32;97252.50;4410206;32;20117;-72
2020/12/05 00:25:48;;;;;;;11.80;7.20;;;;;;;5.89;84.53;97254.25;4411633;32;20509;-70
2020/12/05 00:28:14;;;;;;;14.00;7.10;;;;;;;5.88;84.22;97258.31;4406310;32;20023;-72
2020/12/05 00:30:39;;;;;;;13.38;6.47;;;;;;;5.87;84.20;97265.13;4407546;32;21608;-71
2020/12/05 00:33:05;;;;;;;13.52;6.65;;;;;;;5.58;84.14;97270.88;4410493;32;20542;-71
2020/12/05 00:35:31;;;;;;;14.48;6.18;;;;;;;5.66;84.09;97279.56;4414437;32;20465;-73
2020/12/05 00:37:56;;;;;;;11.02;6.25;;;;;;;5.63;84.36;97284.12;4413197;32;20030;-73
2020/12/05 00:40:23;;;;;;;15.30;7.18;;;;;;;5.69;84.60;97290.53;4413614;32;20091;-72
2020/12/05 00:42:49;;;;;;;11.45;6.22;;;;;;;5.73;84.50;97288.28;4412838;32;20034;-73
2020/12/05 00:45:15;;;;;;;17.08;6.10;;;;;;;5.74;84.63;97292.59;4411786;32;20100;-71
2020/12/05 00:47:41;;;;;;;11.43;6.20;;;;;;;5.73;84.47;97299.44;4410744;32;20079;-74
2020/12/05 00:50:07;;;;;;;14.20;6.25;;;;;;;5.75;84.21;97307.31;4408181;32;20089;-72
2020/12/05 00:55:15;;;;;;;18.92;6.90;;;;;;;5.65;83.46;97306.69;4388168;32;20105;-75
2020/12/05 00:57:40;;;;;;;13.43;6.53;;;;;;;5.66;83.82;97313.03;4388728;32;20113;-71
2020/12/05 01:00:07;;;;;;;21.65;8.20;;;;;;;5.77;84.51;97319.53;4386140;32;20118;-74
2020/12/05 01:02:33;;;;;;;15.30;7.68;;;;;;;5.87;84.92;97318.13;4389152;32;20050;-75
2020/12/05 01:04:59;;;;;;;16.15;7.97;;;;;;;5.91;84.63;97332.66;4392019;32;20395;-75
2020/12/05 01:07:25;;;;;;;13.45;6.87;;;;;;;5.95;84.40;97326.84;4388992;32;20077;-71
2020/12/05 01:09:52;;;;;;;19.40;7.15;;;;;;;5.87;83.62;97329.31;4391399;32;20118;-72
2020/12/05 01:12:18;;;;;;;15.15;7.12;;;;;;;5.98;83.77;97337.81;4390240;32;20107;-73
2020/12/05 01:14:44;;;;;;;16.77;5.75;;;;;;;5.95;83.69;97341.59;4386242;32;20049;-75
2020/12/05 01:17:10;;;;;;;11.75;6.30;;;;;;;5.92;83.46;97353.72;4393190;32;20073;-74
2020/12/05 01:19:35;;;;;;;16.92;6.60;;;;;;;6.01;84.24;97355.59;4377771;32;20119;-73
2020/12/05 01:22:01;;;;;;;14.35;5.93;;;;;;;5.94;83.32;97364.41;4392050;32;20402;-72
2020/12/05 01:24:27;;;;;;;16.60;6.32;;;;;;;5.99;83.46;97375.62;4390522;32;20081;-74
2020/12/05 01:26:52;;;;;;;13.62;5.65;;;;;;;5.86;83.10;97372.41;4391724;32;20099;-73
2020/12/05 01:29:18;;;;;;;11.10;5.60;;;;;;;5.91;83.21;97377.31;4376328;32;20203;-75
2020/12/05 01:31:48;;;;;;;15.82;6.10;;;;;;;5.81;83.62;97381.50;4376404;32;20104;-73
2020/12/05 01:34:15;;;;;;;13.25;6.28;;;;;;;5.81;83.37;97386.28;4391967;32;20047;-73
2020/12/05 01:36:45;;;;;;;18.85;7.30;;;;;;;5.85;83.74;97396.00;4388191;32;20090;-71
2020/12/05 01:39:11;;;;;;;14.07;7.62;;;;;;;5.92;84.18;97398.38;4389740;32;20100;-73
2020/12/05 01:41:37;;;;;;;14.80;7.55;;;;;;;5.77;83.34;97402.47;4388178;32;20463;-70
2020/12/05 01:44:03;;;;;;;22.27;8.77;;;;;;;5.77;83.35;97414.38;4392294;32;20065;-74
2020/12/05 01:46:36;;;;;;;23.45;7.28;;;;;;;5.84;83.87;97422.38;4388563;32;20100;-72
2020/12/05 01:49:01;;;;;;;18.10;5.90;;;;;;;5.83;83.83;97423.59;4389876;32;20035;-71
2020/12/05 01:51:29;;;;;;;10.75;4.68;;;;;;;5.73;83.55;97430.56;4390103;32;20026;-71
2020/12/05 01:53:55;;;;;;;11.07;4.95;;;;;;;5.74;83.20;97434.88;4387296;32;20043;-70
2020/12/05 01:56:24;;;;;;;13.73;4.75;;;;;;;5.73;83.01;97444.50;4391541;32;20527;-73
2020/12/05 01:58:50;;;;;;;11.48;3.90;;;;;;;5.73;83.48;97450.06;4390584;32;20070;-71
2020/12/05 02:01:20;;;;;;;6.18;3.65;;;;;;;5.76;83.10;97449.09;4387893;32;20141;-70
2020/12/05 02:03:45;;;;;;;10.10;3.42;;;;;;;5.62;83.16;97463.84;4387908;32;20474;-74
2020/12/05 02:06:24;;;;;;;7.47;3.90;;;;;;;5.68;83.43;97475.09;4387295;32;20068;-71
2020/12/05 02:09:01;;;;;;;8.93;4.00;;;;;;;5.66;82.87;97481.16;4387658;32;20111;-70
2020/12/05 02:11:31;;;;;;;9.43;4.18;;;;;;;5.66;83.35;97478.37;4390082;32;20104;-71
2020/12/05 02:14:00;;;;;;;7.87;4.70;;;;;;;5.66;82.54;97485.97;4387783;32;20034;-74
2020/12/05 02:16:27;;;;;;;10.20;5.40;;;;;;;5.69;83.11;97490.56;4387722;32;20059;-74
2020/12/05 02:18:56;;;;;;;8.48;4.65;;;;;;;5.66;83.02;97495.09;4391297;32;20458;-74
2020/12/05 02:21:27;;;;;;;13.07;5.07;;;;;;;5.70;83.21;97506.84;4387825;32;20074;-72
2020/12/05 02:23:53;;;;;;;11.57;5.05;;;;;;;5.66;82.56;97511.06;4389436;32;20073;-71
2020/12/05 02:26:19;;;;;;;8.20;3.95;;;;;;;5.59;81.32;97515.00;4386853;32;20081;-71
2020/12/05 02:28:45;;;;;;;6.57;3.17;;;;;;;5.65;81.70;97518.66;4393408;32;20066;-71
2020/12/05 02:31:11;;;;;;;6.85;2.87;;;;;;;5.48;81.47;97526.00;4388025;32;21088;-71
2020/12/05 02:33:37;;;;;;;3.90;2.72;;;;;;;5.53;82.48;97541.28;4391737;32;20079;-71
2020/12/05 02:36:02;;;;;;;5.47;2.45;;;;;;;5.39;83.09;97545.63;4391408;32;20065;-72
2020/12/05 02:38:54;;;;;;;4.37;2.40;;;;;;;5.32;83.31;97556.38;4389312;32;20089;-73
2020/12/05 02:41:21;;;;;;;3.55;2.20;;;;;;;5.27;82.79;97557.03;4392127;32;20094;-72
2020/12/05 02:43:47;;;;;;;4.10;2.42;;;;;;;5.19;83.37;97562.22;4389143;32;20179;-72
2020/12/05 02:46:12;;;;;;;3.70;2.20;;;;;;;5.16;83.51;97576.34;4391658;32;20034;-75
2020/12/05 02:48:38;;;;;;;4.95;2.22;;;;;;;5.17;83.43;97578.66;4389359;32;20449;-73
2020/12/05 02:51:04;;;;;;;4.70;2.45;;;;;;;5.04;83.18;97575.38;4390498;32;20057;-75
2020/12/05 02:53:29;;;;;;;5.95;2.58;;;;;;;5.16;84.18;97585.47;4388301;32;20227;-72
2020/12/05 02:55:55;;;;;;;5.05;2.80;;;;;;;5.07;83.25;97593.16;4389957;32;20480;-74
2020/12/05 02:58:20;;;;;;;8.15;3.90;;;;;;;5.02;83.35;97600.16;4389773;32;20103;-74
2020/12/05 03:00:46;;;;;;;6.45;3.50;;;;;;;5.00;83.95;97605.44;4391335;32;20134;-73
2020/12/05 03:03:12;;;;;;;5.75;3.55;;;;;;;4.96;83.64;97612.44;4391210;32;20371;-70
2020/12/05 03:05:37;;;;;;;11.82;4.50;;;;;;;4.95;83.74;97616.47;4392682;32;20080;-71
2020/12/05 03:08:03;;;;;;;10.38;5.37;;;;;;;4.97;84.12;97619.56;4394870;32;20489;-71
2020/12/05 03:10:28;;;;;;;13.10;5.00;;;;;;;4.98;84.50;97624.66;4389889;32;20075;-71
2020/12/05 03:12:54;;;;;;;9.65;4.62;;;;;;;4.92;83.99;97623.78;4379712;32;20128;-72
2020/12/05 03:15:20;;;;;;;8.68;4.28;;;;;;;4.87;83.71;97632.78;4390714;32;20141;-72
2020/12/05 03:17:46;;;;;;;7.05;4.05;;;;;;;4.92;84.44;97632.13;4393375;32;20105;-71
2020/12/05 03:20:11;;;;;;;11.07;3.67;;;;;;;4.94;84.22;97640.75;4390399;32;20078;-71
2020/12/05 03:22:37;;;;;;;8.77;4.00;;;;;;;4.87;83.97;97646.69;4388328;32;20057;-70
2020/12/05 03:25:02;;;;;;;11.80;4.30;;;;;;;4.84;84.75;97647.66;4389475;32;20089;-70
2020/12/05 03:27:28;;;;;;;8.48;3.37;;;;;;;4.92;84.37;97656.44;4392387;32;20081;-71
2020/12/05 03:29:54;;;;;;;6.80;3.17;;;;;;;5.00;84.50;97660.41;4378067;32;20368;-69
2020/12/05 03:32:24;;;;;;;7.22;4.03;;;;;;;5.06;84.77;97661.28;4391694;32;20074;-69
2020/12/05 03:34:50;;;;;;;4.47;3.05;;;;;;;5.00;84.97;97666.72;4388665;32;20054;-70
2020/12/05 03:37:15;;;;;;;8.45;3.53;;;;;;;5.01;85.17;97673.84;4392292;32;20096;-72
2020/12/05 03:39:41;;;;;;;6.95;3.35;;;;;;;5.07;84.89;97671.19;4390813;32;20110;-71
2020/12/05 03:42:07;;;;;;;8.95;3.90;;;;;;;4.89;82.96;97683.22;4393168;32;20073;-72
2020/12/05 03:44:33;;;;;;;13.50;4.68;;;;;;;4.96;84.39;97696.00;4392188;32;20026;-70
2020/12/05 03:46:58;;;;;;;8.90;4.53;;;;;;;4.90;84.57;97690.31;4391848;32;20093;-72
2020/12/05 03:49:31;;;;;;;10.55;4.40;;;;;;;4.91;84.77;97700.22;4389439;32;20093;-70
2020/12/05 03:51:58;;;;;;;9.93;4.87;;;;;;;4.94;85.17;97702.06;4389600;32;20057;-73
2020/12/05 03:54:24;;;;;;;10.10;4.80;;;;;;;5.04;85.57;97708.34;4390630;32;20083;-70
2020/12/05 03:56:49;;;;;;;11.25;4.72;;;;;;;5.08;85.52;97712.50;4390548;32;20074;-70
2020/12/05 03:59:15;;;;;;;17.00;6.07;;;;;;;5.06;84.26;97726.12;4393776;32;20078;-70
2020/12/05 04:01:40;;;;;;;17.12;5.82;;;;;;;5.11;85.00;97730.28;4389688;32;20073;-68
2020/12/05 04:04:06;;;;;;;21.87;6.15;;;;;;;5.16;85.49;97726.84;4391327;32;20097;-69
2020/12/05 04:06:31;;;;;;;16.40;5.45;;;;;;;5.17;85.38;97739.53;4388043;32;20069;-69
2020/12/05 04:08:57;;;;;;;19.98;5.22;;;;;;;5.18;84.87;97733.50;4389778;32;20065;-74
2020/12/05 04:11:23;;;;;;;10.85;5.15;;;;;;;5.22;85.17;97747.25;4389083;32;20100;-71
2020/12/05 04:13:48;;;;;;;12.05;5.53;;;;;;;5.20;84.95;97755.31;4388717;32;20111;-70
2020/12/05 04:16:15;;;;;;;17.23;5.00;;;;;;;5.26;84.82;97765.34;4391935;32;20492;-73
2020/12/05 04:18:40;;;;;;;17.25;5.57;;;;;;;5.25;84.94;97766.56;4391351;32;20071;-73
2020/12/05 04:21:06;;;;;;;13.48;5.57;;;;;;;5.35;85.01;97768.06;4390919;32;20115;-74
2020/12/05 04:23:32;;;;;;;19.85;4.82;;;;;;;5.37;85.02;97779.50;4389988;32;20030;-70
2020/12/05 04:25:57;;;;;;;15.95;4.87;;;;;;;5.42;84.82;97784.44;4391477;32;20035;-71
2020/12/05 04:28:23;;;;;;;14.70;3.92;;;;;;;5.29;83.58;97791.50;4391840;32;20061;-72
2020/12/05 04:30:49;;;;;;;12.68;3.87;;;;;;;5.29;83.66;97792.28;4389468;32;20428;-71
2020/12/05 04:33:14;;;;;;;17.73;4.03;;;;;;;5.38;83.98;97802.59;4388498;32;20030;-71
2020/12/05 04:35:41;;;;;;;15.38;3.90;;;;;;;5.41;83.92;97807.22;4391954;32;20094;-75
2020/12/05 04:38:07;;;;;;;12.05;3.40;;;;;;;5.49;84.30;97822.38;4390090;32;20026;-71
2020/12/05 04:40:33;;;;;;;10.15;3.25;;;;;;;5.54;83.74;97824.47;4391310;32;20072;-69
2020/12/05 04:43:00;;;;;;;12.35;3.92;;;;;;;5.57;83.53;97823.53;4389562;32;20086;-69
2020/12/05 04:45:26;;;;;;;10.27;3.50;;;;;;;5.56;82.36;97835.94;4389891;32;20117;-73
2020/12/05 04:47:54;;;;;;;8.02;3.30;;;;;;;5.65;83.93;97847.03;4389983;32;20078;-73
2020/12/05 04:50:23;;;;;;;11.23;3.22;;;;;;;5.70;83.93;97849.94;4393093;32;20074;-73
2020/12/05 04:52:51;;;;;;;9.27;2.90;;;;;;;5.78;83.92;97861.50;4390137;32;20045;-71
2020/12/05 04:55:21;;;;;;;16.08;3.10;;;;;;;5.76;82.78;97866.78;4386665;32;20035;-74
2020/12/05 04:57:56;;;;;;;9.90;3.15;;;;;;;5.79;83.07;97869.41;4385540;32;20034;-71
2020/12/05 05:00:22;;;;;;;;;;;;;;;5.86;83.47;97879.47;4388271;32;20390;-70
2020/12/05 05:02:48;;;;;;;18.10;3.05;;;;;;;5.90;82.77;97871.69;4385465;32;20250;-71
2020/12/05 05:05:15;;;;;;;16.92;3.03;;;;;;;5.88;82.84;97877.75;4385899;32;20463;-71
2020/12/05 05:07:49;;;;;;;12.88;2.85;;;;;;;5.91;82.87;97885.16;4387987;32;20073;-72
2020/12/05 05:10:19;;;;;;;7.50;2.37;;;;;;;5.91;82.31;97892.75;4384827;32;20462;-72
2020/12/05 05:12:45;;;;;;;10.65;2.70;;;;;;;5.83;81.79;97895.13;4386651;32;20030;-69
2020/12/05 05:15:30;;;;;;;10.98;2.40;;;;;;;5.86;82.09;97908.12;4384153;32;20094;-72
2020/12/05 05:18:00;;;;;;;7.73;1.60;;;;;;;5.71;80.58;97909.31;4384857;32;20042;-72
2020/12/05 05:20:27;;;;;;;12.05;3.17;;;;;;;5.80;81.48;97909.25;4387058;32;20082;-74
2020/12/05 05:26:03;;;;;;;13.65;2.78;;;;;;;6.32;80.86;97933.69;3983250;32;15078853;-69
2020/12/05 05:28:32;;;;;;;9.95;2.45;;;;;;;6.32;80.86;97933.69;4436289;32;20033;-69
2020/12/05 05:41:33;;;;;;;10.00;2.65;;;;;;;6.40;80.63;97967.59;3985401;32;15023514;-68
2020/12/05 05:44:04;;;;;;;8.35;2.28;;;;;;;6.40;80.63;97967.59;4443842;32;20114;-69
2020/12/05 05:46:31;;;;;;;10.10;2.22;;;;;;;6.06;81.26;97980.87;4441831;32;20033;-70
2020/12/05 05:48:58;;;;;;;11.90;2.20;;;;;;;6.04;80.56;97990.97;4443351;32;20089;-70
2020/12/05 05:59:32;;;;;;;9.20;2.35;;;;;;;6.50;77.64;98033.34;3984453;32;15022501;-70
2020/12/05 06:01:59;;;;;;;9.18;2.78;;;;;;;6.50;77.64;98033.34;4440208;32;20136;-72
2020/12/05 06:04:28;;;;;;;9.48;2.80;;;;;;;6.05;80.12;98031.59;4438304;32;20140;-70
2020/12/05 06:06:56;;;;;;;15.60;3.03;;;;;;;6.11;80.81;98035.31;4438525;32;20367;-70
2020/12/05 06:09:26;;;;;;;13.48;2.87;;;;;;;6.11;80.79;98047.22;4439458;32;20093;-70
2020/12/05 06:11:54;;;;;;;9.50;2.40;;;;;;;6.19;81.15;98058.06;4440180;32;20502;-70
2020/12/05 06:14:21;;;;;;;8.70;2.62;;;;;;;6.17;80.11;98064.13;4438597;32;20073;-69
2020/12/05 06:16:50;;;;;;;7.72;2.30;;;;;;;6.25;81.26;98061.72;4439075;32;20065;-71
2020/12/05 06:19:16;;;;;;;9.77;2.47;;;;;;;6.36;81.63;98073.94;4439532;32;20033;-69
2020/12/05 06:21:42;;;;;;;13.10;2.35;;;;;;;6.40;81.37;98073.75;4438947;32;20451;-70
2020/12/05 06:24:08;;;;;;;9.15;2.22;;;;;;;6.46;81.29;98077.44;4436693;32;20033;-72
2020/12/05 06:26:38;;;;;;;12.25;2.87;;;;;;;6.46;80.57;98086.59;4438937;32;20052;-71
2020/12/05 06:29:06;;;;;;;9.02;2.20;;;;;;;6.51;80.73;98096.34;4440869;32;20060;-71
2020/12/05 06:34:37;;;;;;;9.13;2.55;;;;;;;6.44;79.75;98105.06;3986046;32;15025574;-70
2020/12/05 06:37:03;;;;;;;10.00;2.15;;;;;;;6.43;80.50;98097.94;4441228;32;20125;-69
2020/12/05 06:39:29;;;;;;;7.05;2.28;;;;;;;6.38;80.57;98096.56;4437579;32;21269;-72
2020/12/05 06:41:55;;;;;;;10.02;2.50;;;;;;;6.36;80.65;98110.25;4439946;32;20025;-71
2020/12/05 06:46:59;;;;;;;7.35;2.20;;;;;;;6.65;79.80;98121.53;3957136;32;15724485;-69
2020/12/05 06:49:44;;;;;;;12.05;2.97;;;;;;;6.65;79.80;98121.53;4434780;32;20065;-69
2020/12/05 06:57:59;;;;;;;14.60;2.62;;;;;;;6.56;80.32;98160.72;3985009;32;15022762;-69
2020/12/05 07:00:25;;;;;;;11.27;2.95;;;;;;;6.56;80.32;98160.72;4434881;32;20091;-71
2020/12/05 07:08:36;;;;;;;10.98;2.87;;;;;;;6.14;81.01;98169.13;3986656;32;15022749;-72
2020/12/05 07:13:42;;;;;;;8.68;3.03;;;;;;;6.04;81.32;98178.78;3984172;32;15024792;-70
2020/12/05 07:21:30;;;;;;;13.02;3.15;;;;;;;6.02;81.11;98183.28;3965984;32;15019836;-70
2020/12/05 07:23:56;;;;;;;15.73;4.60;;;;;;;5.87;82.01;98179.59;4418874;32;20022;-70
2020/12/05 07:26:22;;;;;;;12.05;4.25;;;;;;;5.83;81.88;98188.13;4419658;32;20399;-69
2020/12/05 07:28:50;;;;;;;22.37;5.00;;;;;;;5.83;81.69;98192.94;4421186;32;20445;-71
2020/12/05 07:31:16;;;;;;;13.88;3.95;;;;;;;5.83;81.93;98212.47;4420825;32;20103;-69
2020/12/05 07:33:43;;;;;;;18.20;4.87;;;;;;;5.78;81.79;98213.84;4419608;32;20034;-70
2020/12/05 07:36:11;;;;;;;15.52;5.60;;;;;;;5.75;82.10;98217.56;4419212;32;20083;-71
2020/12/05 07:38:39;;;;;;;21.70;6.57;;;;;;;5.70;82.47;98222.97;4424500;32;20022;-71
2020/12/05 07:41:18;;;;;;;17.45;6.45;;;;;;;5.63;82.11;98228.88;4421918;32;20057;-71
2020/12/05 07:43:44;;;;;;;18.42;5.68;;;;;;;5.61;82.34;98234.94;4421863;32;20120;-70
2020/12/05 07:46:12;;;;;;;12.52;5.25;;;;;;;5.58;82.73;98244.22;4419024;32;20058;-71
2020/12/05 07:48:38;;;;;;;17.05;5.03;;;;;;;5.61;82.88;98253.66;4420264;32;20426;-71
2020/12/05 07:51:12;;;;;;;15.45;5.28;;;;;;;5.62;82.96;98258.78;4420125;32;20083;-70
2020/12/05 07:53:38;;;;;;;15.07;5.12;;;;;;;5.74;82.56;98268.25;4409769;32;20022;-72
2020/12/05 07:56:21;;;;;;;20.58;5.62;;;;;;;5.73;82.42;98259.09;4410257;32;20070;-70
2020/12/05 07:58:49;;;;;;;18.48;5.18;;;;;;;5.79;82.41;98276.00;4408064;32;20097;-72
2020/12/05 08:04:32;;;;;;;17.20;5.12;;;;;;;6.20;81.38;98300.50;3989024;32;15023258;-71
2020/12/05 08:09:50;;;;;;;21.83;5.55;;;;;;;6.30;81.28;98306.81;3988712;32;15022118;-72
2020/12/05 08:12:24;;;;;;;17.60;4.68;;;;;;;6.30;81.28;98306.81;4441356;32;20960;-72
2020/12/05 08:14:50;;;;;;;17.17;4.72;;;;;;;5.91;82.13;98314.16;4439947;32;20518;-71
2020/12/05 08:17:16;;;;;;;19.75;4.68;;;;;;;5.94;82.50;98322.38;4440179;32;20025;-71
2020/12/05 08:19:42;;;;;;;14.00;4.93;;;;;;;6.01;82.58;98310.91;4442755;32;20025;-72
2020/12/05 08:22:09;;;;;;;16.25;4.93;;;;;;;6.04;81.86;98326.72;4438779;32;20029;-71
2020/12/05 08:24:38;;;;;;;18.45;5.75;;;;;;;6.06;81.44;98331.84;4442642;32;20044;-70
2020/12/05 08:27:04;;;;;;;14.48;5.47;;;;;;;6.15;82.00;98337.41;4438660;32;20044;-71
2020/12/05 08:29:30;;;;;;;14.30;4.50;;;;;;;6.23;82.11;98343.47;4436817;32;20049;-71
2020/12/05 08:31:56;;;;;;;21.20;5.82;;;;;;;6.23;80.60;98335.88;4440496;32;20460;-71
2020/12/05 08:34:30;;;;;;;16.83;4.78;;;;;;;6.28;81.21;98342.81;4438134;32;20065;-72
2020/12/05 08:36:56;;;;;;;13.25;5.20;;;;;;;6.30;80.76;98354.31;4437775;32;20022;-72
2020/12/05 08:39:25;;;;;;;19.35;4.85;;;;;;;6.27;80.53;98372.00;4438970;32;20043;-72
2020/12/05 08:41:53;;;;;;;16.62;5.60;;;;;;;6.35;81.51;98373.25;4438805;32;20081;-73
2020/12/05 08:44:21;;;;;;;15.10;5.07;;;;;;;6.35;80.64;98373.25;4439196;32;20073;-70
2020/12/05 08:47:00;;;;;;;13.20;4.62;;;;;;;6.42;80.41;98378.50;4437719;32;20065;-71
2020/12/05 08:49:26;;;;;;;16.12;6.47;;;;;;;6.54;81.32;98380.34;4440292;32;20401;-70
2020/12/05 08:51:53;;;;;;;15.52;5.10;;;;;;;6.61;81.39;98391.19;4434085;32;20468;-70
2020/12/05 08:54:19;;;;;;;20.15;5.32;;;;;;;6.72;81.37;98397.09;4425379;32;20760;-71
2020/12/05 08:56:45;;;;;;;11.98;4.50;;;;;;;6.79;81.20;98405.91;4422432;32;20069;-71
2020/12/05 08:59:23;;;;;;;13.95;4.47;;;;;;;6.81;80.75;98400.63;4424211;32;20110;-72
2020/12/05 09:01:52;;;;;;;11.93;4.93;;;;;;;6.91;81.36;98409.75;4422443;32;20097;-72
2020/12/05 09:04:28;;;;;;;15.18;4.80;;;;;;;7.03;81.54;98425.56;4422965;32;20069;-72
2020/12/05 09:06:54;;;;;;;;;;;;;;;7.11;80.81;98421.97;4422098;32;20152;-71
2020/12/05 09:09:35;;;;;;;24.30;5.85;;;;;;;7.22;80.95;98427.06;4423633;32;19951;-71
2020/12/05 09:12:03;;;;;;;17.37;5.40;;;;;;;7.09;79.45;98437.69;4422014;32;20446;-72
2020/12/05 09:14:29;;;;;;;11.98;4.12;;;;;;;7.17;81.18;98433.28;4423916;32;20444;-71
2020/12/05 09:16:55;;;;;;;12.23;4.40;;;;;;;7.19;80.40;98436.41;4425848;32;20441;-70
2020/12/05 09:19:24;;;;;;;14.05;4.00;;;;;;;7.27;80.75;98449.56;4418500;32;20149;-72
2020/12/05 09:21:49;;;;;;;16.30;4.25;;;;;;;7.39;81.33;98447.81;4414492;32;20038;-72
2020/12/05 09:24:15;;;;;;;19.67;4.90;;;;;;;7.38;80.41;98454.66;4413946;32;20065;-72
2020/12/05 09:26:59;;;;;;;18.73;5.00;;;;;;;7.44;80.44;98447.19;4411762;32;20084;-71
2020/12/05 09:29:24;;;;;;;16.98;5.07;;;;;;;7.54;80.34;98452.28;4414318;32;20056;-71
2020/12/05 09:31:52;;;;;;;21.17;5.30;;;;;;;7.57;80.09;98462.50;4412865;32;20046;-73
2020/12/05 09:34:30;;;;;;;21.83;4.20;;;;;;;7.60;80.24;98467.16;4410675;32;20425;-73
2020/12/05 09:36:56;;;;;;;17.05;4.50;;;;;;;7.64;79.86;98472.59;4412277;32;20073;-73
2020/12/05 09:39:22;;;;;;;12.73;3.80;;;;;;;7.52;79.24;98481.97;4412452;32;20466;-72
2020/12/05 09:41:47;;;;;;;17.00;4.05;;;;;;;7.49;79.65;98477.31;4415134;32;20104;-72
2020/12/05 09:44:14;;;;;;;16.37;5.15;;;;;;;7.59;80.27;98481.63;4414464;32;20151;-70
2020/12/05 09:46:39;;;;;;;10.98;3.90;;;;;;;7.66;80.29;98492.47;4410202;32;20045;-70
2020/12/05 09:49:05;;;;;;;13.00;3.37;;;;;;;7.70;79.93;98501.50;4413110;32;20068;-72
2020/12/05 09:51:31;;;;;;;13.35;4.05;;;;;;;7.72;79.44;98493.38;4414403;32;20481;-72
2020/12/05 09:53:56;;;;;;;9.68;3.47;;;;;;;7.88;80.65;98507.00;4412459;32;20088;-72
2020/12/05 09:56:22;;;;;;;11.73;3.33;;;;;;;8.01;80.54;98511.12;4411720;32;20085;-73
2020/12/05 09:58:48;;;;;;;12.80;4.18;;;;;;;8.14;79.89;98516.53;4410455;32;20069;-72
2020/12/05 10:01:13;;;;;;;18.12;5.72;;;;;;;8.20;79.11;98517.41;4411816;32;20340;-71
2020/12/05 10:03:39;;;;;;;20.10;6.22;;;;;;;8.30;78.98;98521.72;4413789;32;20137;-73
2020/12/05 10:06:04;;;;;;;20.60;6.07;;;;;;;8.38;78.67;98530.56;4413101;32;20133;-71
2020/12/05 10:08:30;;;;;;;20.10;5.70;;;;;;;8.43;78.69;98530.66;4410035;32;20693;-71
2020/12/05 10:10:56;;;;;;;18.25;6.07;;;;;;;8.38;77.40;98534.16;4411094;32;20031;-73
2020/12/05 10:13:21;;;;;;;21.00;5.62;;;;;;;8.45;77.88;98536.59;4412474;32;20197;-71
2020/12/05 10:15:47;;;;;;;16.35;5.30;;;;;;;8.34;76.91;98538.37;4409844;32;20457;-72
2020/12/05 10:18:12;;;;;;;11.00;4.97;;;;;;;8.39;77.40;98546.13;4413829;32;20126;-72
2020/12/05 10:20:38;;;;;;;15.57;5.35;;;;;;;8.31;76.41;98550.53;4410928;32;20042;-71
2020/12/05 10:23:04;;;;;;;19.95;5.37;;;;;;;8.43;78.21;98546.72;4412984;32;20044;-71
2020/12/05 10:25:31;;;;;;;12.05;4.70;;;;;;;8.45;77.72;98559.00;4411175;32;20194;-74
2020/12/05 10:27:57;;;;;;;18.62;5.43;;;;;;;8.46;76.99;98557.75;4413748;32;20018;-72
2020/12/05 10:30:22;;;;;;;16.10;5.55;;;;;;;8.50;77.07;98561.13;4411473;32;20030;-72
2020/12/05 10:32:48;;;;;;;22.92;6.95;;;;;;;8.54;76.50;98567.34;4410837;32;21281;-74
2020/12/05 10:35:14;;;;;;;20.20;5.85;;;;;;;8.65;77.24;98559.16;4412114;32;20087;-71
2020/12/05 10:37:39;;;;;;;21.12;5.10;;;;;;;8.59;75.75;98566.69;4412116;32;20062;-72
2020/12/05 10:40:05;;;;;;;21.23;5.50;;;;;;;8.80;77.81;98570.47;4412769;32;20093;-70
2020/12/05 10:42:31;;;;;;;13.70;5.00;;;;;;;8.92;77.33;98570.19;4409245;32;20115;-72
2020/12/05 10:44:57;;;;;;;24.30;7.28;;;;;;;9.03;77.15;98567.63;4410705;32;20052;-72
2020/12/05 10:47:23;;;;;;;13.77;5.82;;;;;;;9.14;76.63;98567.06;4410820;32;20407;-74
2020/12/05 10:49:49;;;;;;;15.25;5.30;;;;;;;9.22;76.53;98566.19;4413513;32;20101;-73
2020/12/05 10:52:15;;;;;;;16.30;5.47;;;;;;;9.34;76.44;98576.37;4413476;32;20105;-74
2020/12/05 10:54:40;;;;;;;12.68;4.28;;;;;;;9.59;76.43;98572.22;4411357;32;20046;-71
2020/12/05 10:57:06;;;;;;;13.85;4.55;;;;;;;9.75;74.16;98569.69;4410714;32;20052;-74
2020/12/05 10:59:32;;;;;;;19.12;5.87;;;;;;;9.98;74.82;98576.47;4410828;32;20537;-73
2020/12/05 11:01:57;;;;;;;16.42;5.20;;;;;;;9.98;73.22;98582.84;4411211;32;20081;-71
2020/12/05 11:04:23;;;;;;;14.52;4.82;;;;;;;10.05;72.70;98588.06;4411747;32;20195;-71
2020/12/05 11:06:48;;;;;;;17.95;5.50;;;;;;;9.97;72.50;98588.94;4411163;32;20109;-74
2020/12/05 11:09:14;;;;;;;14.43;4.25;;;;;;;9.98;73.66;98590.50;4409381;32;20482;-72
2020/12/05 11:11:40;;;;;;;11.85;4.78;;;;;;;9.92;73.08;98596.00;4411434;32;20037;-74
2020/12/05 11:14:06;;;;;;;14.35;4.43;;;;;;;9.72;72.01;98595.94;4412292;32;20026;-72
2020/12/05 11:16:31;;;;;;;10.43;4.60;;;;;;;9.71;73.47;98594.41;4411840;32;20177;-74
2020/12/05 11:18:57;;;;;;;19.87;4.85;;;;;;;9.68;73.57;98603.00;4413312;32;20022;-73
2020/12/05 11:21:23;;;;;;;11.07;4.30;;;;;;;9.40;71.69;98590.50;4412733;32;20156;-74
2020/12/05 11:23:48;;;;;;;14.25;4.72;;;;;;;9.37;73.85;98589.44;4409494;32;20075;-70
2020/12/05 11:26:21;;;;;;;12.00;4.72;;;;;;;9.27;73.56;98579.53;4409886;32;20117;-73
2020/12/05 11:28:47;;;;;;;18.42;5.03;;;;;;;9.23;73.94;98590.19;4410618;32;20100;-74
2020/12/05 11:31:13;;;;;;;18.90;5.75;;;;;;;9.15;74.69;98593.84;4412640;32;20034;-74
2020/12/05 11:33:39;;;;;;;15.95;5.47;;;;;;;9.16;74.54;98590.56;4410975;32;20019;-71
2020/12/05 11:36:04;;;;;;;15.88;5.00;;;;;;;9.12;73.65;98589.19;4412977;32;20332;-73
2020/12/05 11:38:30;;;;;;;16.58;5.25;;;;;;;8.80;72.39;98588.03;4408950;32;20493;-73
2020/12/05 11:40:56;;;;;;;13.15;5.00;;;;;;;8.85;74.92;98581.78;4407965;32;20061;-74
2020/12/05 11:43:21;;;;;;;19.40;5.60;;;;;;;8.97;75.74;98591.19;4412402;32;20133;-74
2020/12/05 11:45:47;;;;;;;16.48;6.57;;;;;;;9.15;75.93;98588.25;4410748;32;20091;-72
2020/12/05 11:48:13;;;;;;;13.35;4.85;;;;;;;9.36;74.89;98584.31;4410706;32;20070;-70
2020/12/05 11:50:38;;;;;;;17.23;5.30;;;;;;;9.61;74.81;98587.31;4413132;32;20062;-74
2020/12/05 11:53:06;;;;;;;11.55;4.75;;;;;;;9.77;74.17;98586.06;4414384;32;20029;-73
2020/12/05 11:55:32;;;;;;;11.48;5.45;;;;;;;9.80;72.01;98591.50;4410155;32;20065;-75
2020/12/05 11:57:58;;;;;;;19.33;5.82;;;;;;;9.91;72.29;98596.50;4410380;32;20022;-73
2020/12/05 12:00:25;;;;;;;17.65;5.37;;;;;;;9.89;71.86;98604.66;4412849;32;20060;-72
2020/12/05 12:02:52;;;;;;;23.42;5.93;;;;;;;9.93;72.17;98611.63;4409455;32;20175;-73
2020/12/05 12:05:18;;;;;;;13.38;5.70;;;;;;;9.89;72.11;98613.09;4412492;32;20391;-73
2020/12/05 12:07:43;;;;;;;14.87;6.25;;;;;;;9.92;71.52;98612.88;4409310;32;20462;-73
2020/12/05 12:10:09;;;;;;;15.45;5.15;;;;;;;9.84;71.93;98616.56;4411361;32;20089;-73
2020/12/05 12:12:36;;;;;;;13.60;5.72;;;;;;;9.80;71.36;98616.78;4410203;32;20035;-74
2020/12/05 12:15:02;;;;;;;17.23;5.45;;;;;;;9.94;72.71;98613.16;4412955;32;20114;-71
2020/12/05 12:17:27;;;;;;;13.02;4.93;;;;;;;9.92;72.02;98617.72;4409658;32;20083;-73
2020/12/05 12:19:53;;;;;;;16.95;6.00;;;;;;;9.96;71.70;98621.09;4407587;32;20129;-74
2020/12/05 12:22:19;;;;;;;14.93;5.50;;;;;;;9.96;72.02;98632.34;4411117;32;20062;-71
2020/12/05 12:24:44;;;;;;;16.60;6.28;;;;;;;9.95;72.46;98619.56;4411083;32;20048;-72
2020/12/05 12:27:10;;;;;;;16.58;6.05;;;;;;;9.79;71.98;98620.81;4411986;32;20401;-74
2020/12/05 12:29:36;;;;;;;12.02;5.15;;;;;;;9.81;72.87;98623.94;4410719;32;20419;-72